sensor_id;sensor_type;location;lat;lon;timestamp;temperature;humidity
34558;DHT22;24708;48.888;8.736;2022-09-27T05:31:06;8.80;99.90
34558;DHT22;24708;48.888;8.736;2022-09-27T05:33:33;8.80;99.90
34558;DHT22;24708;48.888;8.736;2022-09-27T05:36:00;8.90;99.90
34558;DHT22;24708;48.888;8.736;2022-09-27T05:38:28;8.90;99.90
34558;DHT22;24708;48.888;8.736;2022-09-27T05:40:56;8.90;99.90
34558;DHT22;24708;48.888;8.736;2022-09-27T05:43:23;8.80;99.90
34558;DHT22;24708;48.888;8.736;2022-09-27T05:45:51;8.90;99.90
34558;DHT22;24708;48.888;8.736;2022-09-27T05:48:19;8.90;99.90
34558;DHT22;24708;48.888;8.736;2022-09-27T05:50:48;8.90;99.90
34558;DHT22;24708;48.888;8.736;2022-09-27T05:53:15;8.90;99.90
34558;DHT22;24708;48.888;8.736;2022-09-27T05:55:42;8.90;99.90
34558;DHT22;24708;48.888;8.736;2022-09-27T05:58:12;9.00;99.90
34558;DHT22;24708;48.888;8.736;2022-09-27T06:00:46;9.00;99.90
34558;DHT22;24708;48.888;8.736;2022-09-27T06:03:16;9.00;99.90
34558;DHT22;24708;48.888;8.736;2022-09-27T06:05:45;7.10;99.90
34558;DHT22;24708;48.888;8.736;2022-09-27T06:08:20;9.00;99.90
34558;DHT22;24708;48.888;8.736;2022-09-27T06:10:48;8.90;99.90
34558;DHT22;24708;48.888;8.736;2022-09-27T06:13:15;9.20;99.90
34558;DHT22;24708;48.888;8.736;2022-09-27T06:15:45;9.20;99.90
34558;DHT22;24708;48.888;8.736;2022-09-27T06:18:20;9.10;99.90
34558;DHT22;24708;48.888;8.736;2022-09-27T06:20:53;9.00;99.90
34558;DHT22;24708;48.888;8.736;2022-09-27T06:23:22;9.00;99.90
34558;DHT22;24708;48.888;8.736;2022-09-27T06:25:51;8.90;99.90
34558;DHT22;24708;48.888;8.736;2022-09-27T06:28:19;8.90;99.90
34558;DHT22;24708;48.888;8.736;2022-09-27T06:30:50;8.80;99.90
34558;DHT22;24708;48.888;8.736;2022-09-27T06:33:19;8.80;99.90
34558;DHT22;24708;48.888;8.736;2022-09-27T06:35:47;8.70;99.90
34558;DHT22;24708;48.888;8.736;2022-09-27T06:38:17;8.30;99.90
34558;DHT22;24708;48.888;8.736;2022-09-27T06:40:48;8.70;99.90
34558;DHT22;24708;48.888;8.736;2022-09-27T06:43:18;7.10;99.90
34558;DHT22;24708;48.888;8.736;2022-09-27T06:45:47;10.40;99.90
34558;DHT22;24708;48.888;8.736;2022-09-27T06:48:16;8.70;99.90
34558;DHT22;24708;48.888;8.736;2022-09-27T06:50:45;8.70;99.90
34558;DHT22;24708;48.888;8.736;2022-09-27T06:53:14;8.60;99.90
34558;DHT22;24708;48.888;8.736;2022-09-27T06:55:42;8.70;99.90
34558;DHT22;24708;48.888;8.736;2022-09-27T06:58:12;8.80;99.90
34558;DHT22;24708;48.888;8.736;2022-09-27T07:00:59;8.80;99.90
34558;DHT22;24708;48.888;8.736;2022-09-27T07:03:28;8.80;99.90
34558;DHT22;24708;48.888;8.736;2022-09-27T07:06:18;8.80;99.90
34558;DHT22;24708;48.888;8.736;2022-09-27T07:08:50;8.70;99.90
34558;DHT22;24708;48.888;8.736;2022-09-27T07:11:20;8.70;99.90
34558;DHT22;24708;48.888;8.736;2022-09-27T07:13:50;8.80;99.90
34558;DHT22;24708;48.888;8.736;2022-09-27T07:16:18;8.80;99.90
34558;DHT22;24708;48.888;8.736;2022-09-27T07:18:47;7.70;99.90
34558;DHT22;24708;48.888;8.736;2022-09-27T07:21:14;9.00;99.90
34558;DHT22;24708;48.888;8.736;2022-09-27T07:23:42;8.90;99.90
34558;DHT22;24708;48.888;8.736;2022-09-27T07:26:10;9.00;99.90
34558;DHT22;24708;48.888;8.736;2022-09-27T07:28:39;9.20;99.90
34558;DHT22;24708;48.888;8.736;2022-09-27T07:31:08;9.50;99.90
34558;DHT22;24708;48.888;8.736;2022-09-27T07:33:37;9.60;99.90
34558;DHT22;24708;48.888;8.736;2022-09-27T07:36:11;9.60;99.90
34558;DHT22;24708;48.888;8.736;2022-09-27T07:38:39;10.30;99.90
34558;DHT22;24708;48.888;8.736;2022-09-27T07:41:07;11.20;99.90
34558;DHT22;24708;48.888;8.736;2022-09-27T07:43:35;11.40;99.90
34558;DHT22;24708;48.888;8.736;2022-09-27T07:46:03;11.20;99.90
34558;DHT22;24708;48.888;8.736;2022-09-27T07:48:31;11.00;99.90
34558;DHT22;24708;48.888;8.736;2022-09-27T07:50:58;10.90;99.90
34558;DHT22;24708;48.888;8.736;2022-09-27T07:53:26;10.80;99.90
34558;DHT22;24708;48.888;8.736;2022-09-27T07:55:54;10.70;99.90
34558;DHT22;24708;48.888;8.736;2022-09-27T07:58:32;10.70;99.90
34558;DHT22;24708;48.888;8.736;2022-09-27T08:01:08;11.00;99.90
34558;DHT22;24708;48.888;8.736;2022-09-27T08:03:37;11.70;99.90
34558;DHT22;24708;48.888;8.736;2022-09-27T08:06:05;13.20;99.90
34558;DHT22;24708;48.888;8.736;2022-09-27T08:08:33;14.60;99.90
34558;DHT22;24708;48.888;8.736;2022-09-27T08:11:11;15.10;99.90
34558;DHT22;24708;48.888;8.736;2022-09-27T08:13:42;15.60;99.90
34558;DHT22;24708;48.888;8.736;2022-09-27T08:16:15;14.90;99.90
34558;DHT22;24708;48.888;8.736;2022-09-27T08:18:48;14.00;99.90
34558;DHT22;24708;48.888;8.736;2022-09-27T08:21:16;12.90;99.90
34558;DHT22;24708;48.888;8.736;2022-09-27T08:23:51;12.30;99.90
34558;DHT22;24708;48.888;8.736;2022-09-27T08:26:22;11.80;99.90
34558;DHT22;24708;48.888;8.736;2022-09-27T08:28:51;11.50;99.90
34558;DHT22;24708;48.888;8.736;2022-09-27T08:31:19;11.40;99.90
34558;DHT22;24708;48.888;8.736;2022-09-27T08:33:49;11.40;99.90
34558;DHT22;24708;48.888;8.736;2022-09-27T08:36:17;11.40;99.90
34558;DHT22;24708;48.888;8.736;2022-09-27T08:38:52;11.30;99.90
34558;DHT22;24708;48.888;8.736;2022-09-27T08:44:54;10.70;99.90
34558;DHT22;24708;48.888;8.736;2022-09-27T08:47:47;10.70;99.90
34558;DHT22;24708;48.888;8.736;2022-09-27T08:50:28;11.10;99.90
34558;DHT22;24708;48.888;8.736;2022-09-27T08:53:04;11.80;99.90
34558;DHT22;24708;48.888;8.736;2022-09-27T08:55:39;13.10;99.90
34558;DHT22;24708;48.888;8.736;2022-09-27T08:58:19;13.30;99.90
34558;DHT22;24708;48.888;8.736;2022-09-27T09:00:50;13.00;99.90
34558;DHT22;24708;48.888;8.736;2022-09-27T09:03:28;12.60;99.90
34558;DHT22;24708;48.888;8.736;2022-09-27T09:06:13;13.50;99.90
34558;DHT22;24708;48.888;8.736;2022-09-27T09:09:24;14.30;99.90
34558;DHT22;24708;48.888;8.736;2022-09-27T09:11:58;14.70;99.90
34558;DHT22;24708;48.888;8.736;2022-09-27T09:31:36;16.40;99.90
34558;DHT22;24708;48.888;8.736;2022-09-27T09:34:43;14.50;99.90
34558;DHT22;24708;48.888;8.736;2022-09-27T09:37:20;14.30;99.90
34558;DHT22;24708;48.888;8.736;2022-09-27T09:40:02;14.00;99.90
34558;DHT22;24708;48.888;8.736;2022-09-27T09:42:44;15.00;99.90
34558;DHT22;24708;48.888;8.736;2022-09-27T09:45:30;15.70;99.90
34558;DHT22;24708;48.888;8.736;2022-09-27T09:48:27;15.90;99.90
34558;DHT22;24708;48.888;8.736;2022-09-27T09:50:57;16.40;99.90
34558;DHT22;24708;48.888;8.736;2022-09-27T09:53:55;16.30;99.90
34558;DHT22;24708;48.888;8.736;2022-09-27T09:56:29;15.30;99.90
34558;DHT22;24708;48.888;8.736;2022-09-27T09:59:03;14.70;99.90
34558;DHT22;24708;48.888;8.736;2022-09-27T10:01:40;14.30;99.90
34558;DHT22;24708;48.888;8.736;2022-09-27T10:04:23;13.90;99.90
34558;DHT22;24708;48.888;8.736;2022-09-27T10:06:51;13.70;99.90
34558;DHT22;24708;48.888;8.736;2022-09-27T10:09:23;13.40;99.90
34558;DHT22;24708;48.888;8.736;2022-09-27T10:11:54;13.30;99.90
34558;DHT22;24708;48.888;8.736;2022-09-27T10:14:22;13.50;99.90
34558;DHT22;24708;48.888;8.736;2022-09-27T10:16:54;13.80;99.90
34558;DHT22;24708;48.888;8.736;2022-09-27T10:19:28;13.90;99.90
34558;DHT22;24708;48.888;8.736;2022-09-27T10:22:01;14.00;99.90
34558;DHT22;24708;48.888;8.736;2022-09-27T10:25:05;13.90;99.90
34558;DHT22;24708;48.888;8.736;2022-09-27T10:27:46;13.50;99.90
34558;DHT22;24708;48.888;8.736;2022-09-27T10:30:26;13.30;99.90
34558;DHT22;24708;48.888;8.736;2022-09-27T10:32:57;12.90;99.90
34558;DHT22;24708;48.888;8.736;2022-09-27T10:38:31;12.70;99.90
34558;DHT22;24708;48.888;8.736;2022-09-27T10:41:25;12.00;99.90
34558;DHT22;24708;48.888;8.736;2022-09-27T10:44:18;12.00;99.90
34558;DHT22;24708;48.888;8.736;2022-09-27T10:46:49;12.00;99.90
34558;DHT22;24708;48.888;8.736;2022-09-27T10:49:25;11.60;99.90
34558;DHT22;24708;48.888;8.736;2022-09-27T10:51:58;11.50;99.90
34558;DHT22;24708;48.888;8.736;2022-09-27T10:54:33;11.50;99.90
34558;DHT22;24708;48.888;8.736;2022-09-27T10:57:09;11.30;99.90
34558;DHT22;24708;48.888;8.736;2022-09-27T11:00:06;11.30;99.90
34558;DHT22;24708;48.888;8.736;2022-09-27T11:02:36;11.20;99.90
34558;DHT22;24708;48.888;8.736;2022-09-27T11:05:10;11.10;99.90
34558;DHT22;24708;48.888;8.736;2022-09-27T11:07:51;11.00;99.90
34558;DHT22;24708;48.888;8.736;2022-09-27T11:10:25;10.70;99.90
34558;DHT22;24708;48.888;8.736;2022-09-27T11:13:07;10.50;99.90
34558;DHT22;24708;48.888;8.736;2022-09-27T11:15:53;10.50;99.90
34558;DHT22;24708;48.888;8.736;2022-09-27T11:18:34;10.20;99.90
34558;DHT22;24708;48.888;8.736;2022-09-27T11:21:26;9.70;99.90
34558;DHT22;24708;48.888;8.736;2022-09-27T11:30:14;8.70;99.90
34558;DHT22;24708;48.888;8.736;2022-09-27T11:33:10;8.60;99.90
34558;DHT22;24708;48.888;8.736;2022-09-27T11:36:09;8.40;99.90
34558;DHT22;24708;48.888;8.736;2022-09-27T11:39:05;8.40;99.90
34558;DHT22;24708;48.888;8.736;2022-09-27T11:41:59;8.40;99.90
34558;DHT22;24708;48.888;8.736;2022-09-27T11:45:00;8.60;99.90
34558;DHT22;24708;48.888;8.736;2022-09-27T11:48:34;8.70;99.90
34558;DHT22;24708;48.888;8.736;2022-09-27T11:51:14;8.70;99.90
34558;DHT22;24708;48.888;8.736;2022-09-27T12:00:07;9.10;99.90
34558;DHT22;24708;48.888;8.736;2022-09-27T12:06:11;9.00;99.90
34558;DHT22;24708;48.888;8.736;2022-09-27T12:08:52;8.80;99.90
34558;DHT22;24708;48.888;8.736;2022-09-27T12:11:48;8.80;99.90
34558;DHT22;24708;48.888;8.736;2022-09-27T12:14:52;8.90;99.90
34558;DHT22;24708;48.888;8.736;2022-09-27T12:17:14;8.80;99.90
34558;DHT22;24708;48.888;8.736;2022-09-27T12:19:46;8.80;99.90
34558;DHT22;24708;48.888;8.736;2022-09-27T12:25:28;8.80;99.90
34558;DHT22;24708;48.888;8.736;2022-09-27T12:28:07;8.90;99.90
34558;DHT22;24708;48.888;8.736;2022-09-27T12:30:39;9.10;99.90
34558;DHT22;24708;48.888;8.736;2022-09-27T12:33:31;9.20;99.90
34558;DHT22;24708;48.888;8.736;2022-09-27T12:36:07;9.30;99.90
34558;DHT22;24708;48.888;8.736;2022-09-27T12:38:43;9.20;99.90
34558;DHT22;24708;48.888;8.736;2022-09-27T12:41:15;9.30;99.90
34558;DHT22;24708;48.888;8.736;2022-09-27T12:43:46;9.20;99.90
34558;DHT22;24708;48.888;8.736;2022-09-27T12:46:58;9.20;99.90
34558;DHT22;24708;48.888;8.736;2022-09-27T12:51:58;9.20;99.90
34558;DHT22;24708;48.888;8.736;2022-09-27T12:54:57;9.20;99.90
34558;DHT22;24708;48.888;8.736;2022-09-27T12:57:50;9.20;99.90
34558;DHT22;24708;48.888;8.736;2022-09-27T13:00:30;9.20;99.90
34558;DHT22;24708;48.888;8.736;2022-09-27T13:03:28;9.20;99.90
34558;DHT22;24708;48.888;8.736;2022-09-27T13:09:04;9.30;99.90
34558;DHT22;24708;48.888;8.736;2022-09-27T13:12:01;9.30;99.90
34558;DHT22;24708;48.888;8.736;2022-09-27T13:14:33;9.30;99.90
34558;DHT22;24708;48.888;8.736;2022-09-27T13:17:01;9.40;99.90
34558;DHT22;24708;48.888;8.736;2022-09-27T13:19:39;9.40;99.90
34558;DHT22;24708;48.888;8.736;2022-09-27T13:22:36;9.40;99.90
34558;DHT22;24708;48.888;8.736;2022-09-27T13:25:55;9.30;99.90
34558;DHT22;24708;48.888;8.736;2022-09-27T13:31:07;9.20;99.90
34558;DHT22;24708;48.888;8.736;2022-09-27T13:33:51;9.30;99.90
34558;DHT22;24708;48.888;8.736;2022-09-27T13:36:26;9.20;99.90
34558;DHT22;24708;48.888;8.736;2022-09-27T13:45:19;9.60;99.90
34558;DHT22;24708;48.888;8.736;2022-09-27T13:47:36;9.90;99.90
34558;DHT22;24708;48.888;8.736;2022-09-27T13:50:33;9.80;99.90
34558;DHT22;24708;48.888;8.736;2022-09-27T13:53:11;9.90;99.90
34558;DHT22;24708;48.888;8.736;2022-09-27T13:55:47;9.80;99.90
34558;DHT22;24708;48.888;8.736;2022-09-27T13:58:39;9.90;99.90
34558;DHT22;24708;48.888;8.736;2022-09-27T14:01:38;9.70;99.90
34558;DHT22;24708;48.888;8.736;2022-09-27T14:04:17;9.60;99.90
34558;DHT22;24708;48.888;8.736;2022-09-27T14:06:50;9.80;99.90
34558;DHT22;24708;48.888;8.736;2022-09-27T14:09:28;9.90;99.90
34558;DHT22;24708;48.888;8.736;2022-09-27T14:11:59;10.00;99.90
34558;DHT22;24708;48.888;8.736;2022-09-27T14:14:30;10.00;99.90
34558;DHT22;24708;48.888;8.736;2022-09-27T14:16:59;10.10;99.90
34558;DHT22;24708;48.888;8.736;2022-09-27T14:19:27;10.00;99.90
34558;DHT22;24708;48.888;8.736;2022-09-27T14:22:21;9.90;99.90
34558;DHT22;24708;48.888;8.736;2022-09-27T14:24:48;9.80;99.90
34558;DHT22;24708;48.888;8.736;2022-09-27T14:27:48;9.80;99.90
34558;DHT22;24708;48.888;8.736;2022-09-27T14:30:22;9.80;99.90
34558;DHT22;24708;48.888;8.736;2022-09-27T14:32:52;9.70;99.90
34558;DHT22;24708;48.888;8.736;2022-09-27T14:35:29;9.80;99.90
34558;DHT22;24708;48.888;8.736;2022-09-27T14:38:19;9.80;99.90
34558;DHT22;24708;48.888;8.736;2022-09-27T14:41:05;10.20;99.90
34558;DHT22;24708;48.888;8.736;2022-09-27T14:43:35;10.30;99.90
34558;DHT22;24708;48.888;8.736;2022-09-27T14:46:25;10.40;99.90
34558;DHT22;24708;48.888;8.736;2022-09-27T14:48:54;10.50;99.90
34558;DHT22;24708;48.888;8.736;2022-09-27T14:51:28;10.50;99.90
34558;DHT22;24708;48.888;8.736;2022-09-27T14:53:58;10.50;99.90
34558;DHT22;24708;48.888;8.736;2022-09-27T14:56:30;10.40;99.90
34558;DHT22;24708;48.888;8.736;2022-09-27T14:59:05;10.50;99.90
34558;DHT22;24708;48.888;8.736;2022-09-27T15:01:35;10.70;99.90
34558;DHT22;24708;48.888;8.736;2022-09-27T15:04:10;10.60;99.90
34558;DHT22;24708;48.888;8.736;2022-09-27T15:06:40;10.50;99.90
34558;DHT22;24708;48.888;8.736;2022-09-27T15:09:12;10.60;99.90
34558;DHT22;24708;48.888;8.736;2022-09-27T15:11:41;10.70;99.90
34558;DHT22;24708;48.888;8.736;2022-09-27T15:14:13;10.50;99.90
34558;DHT22;24708;48.888;8.736;2022-09-27T15:16:41;10.50;99.90
34558;DHT22;24708;48.888;8.736;2022-09-27T15:19:15;10.50;99.90
34558;DHT22;24708;48.888;8.736;2022-09-27T15:21:45;10.70;99.90
34558;DHT22;24708;48.888;8.736;2022-09-27T15:24:35;10.90;99.90
34558;DHT22;24708;48.888;8.736;2022-09-27T15:27:04;10.70;99.90
34558;DHT22;24708;48.888;8.736;2022-09-27T15:29:39;10.50;99.90
34558;DHT22;24708;48.888;8.736;2022-09-27T15:32:13;10.30;99.90
34558;DHT22;24708;48.888;8.736;2022-09-27T15:34:42;10.20;99.90
34558;DHT22;24708;48.888;8.736;2022-09-27T15:37:27;10.10;99.90
34558;DHT22;24708;48.888;8.736;2022-09-27T15:40:38;10.00;99.90
34558;DHT22;24708;48.888;8.736;2022-09-27T15:43:21;9.90;99.90
34558;DHT22;24708;48.888;8.736;2022-09-27T15:45:50;9.90;99.90
34558;DHT22;24708;48.888;8.736;2022-09-27T15:48:19;9.80;99.90
34558;DHT22;24708;48.888;8.736;2022-09-27T15:50:48;10.00;99.90
34558;DHT22;24708;48.888;8.736;2022-09-27T15:56:14;10.00;99.90
34558;DHT22;24708;48.888;8.736;2022-09-27T15:58:42;9.90;99.90
